Terminal Aerodrome Forecast
Issued by NWS

Home | Current Version | Previous Version | Text Only | Print | Product List | Glossary On
Versions: 1 2 3 4 5 6 7 8 9 10 11 12 13 14 15 16 17
000
FTAK31 PAJN 300540
TAFAGY
TAF
PAGY 300540Z 3006/3106 20010KT P6SM VCSH SCT050 OVC070
     FM301200 20005KT P6SM VCSH SCT020 OVC050
     FM302200 21010KT P6SM SCT050 BKN100
      AMD LTD TO CLD VIS AND WIND=

USA.gov is the U.S. government's official web portal to all federal, state and local government web resources and services.